sensor_id;sensor_type;location;lat;lon;timestamp;temperature;humidity
12303;DHT22;6214;48.012;7.862;2022-08-02T00:00:33;19.90;99.90
12303;DHT22;6214;48.012;7.862;2022-08-02T00:03:00;19.90;99.90
12303;DHT22;6214;48.012;7.862;2022-08-02T00:05:26;20.00;99.90
12303;DHT22;6214;48.012;7.862;2022-08-02T00:07:53;20.10;99.90
12303;DHT22;6214;48.012;7.862;2022-08-02T00:10:20;20.20;99.90
12303;DHT22;6214;48.012;7.862;2022-08-02T00:12:47;20.10;99.90
12303;DHT22;6214;48.012;7.862;2022-08-02T00:15:14;20.10;99.90
12303;DHT22;6214;48.012;7.862;2022-08-02T00:17:42;20.20;99.90
12303;DHT22;6214;48.012;7.862;2022-08-02T00:20:09;20.40;99.90
12303;DHT22;6214;48.012;7.862;2022-08-02T00:22:37;20.40;99.90
12303;DHT22;6214;48.012;7.862;2022-08-02T00:25:05;20.60;99.90
12303;DHT22;6214;48.012;7.862;2022-08-02T00:27:32;20.60;99.90
12303;DHT22;6214;48.012;7.862;2022-08-02T00:29:59;20.70;99.90
12303;DHT22;6214;48.012;7.862;2022-08-02T00:32:26;20.70;99.90
12303;DHT22;6214;48.012;7.862;2022-08-02T00:34:53;20.80;99.90
12303;DHT22;6214;48.012;7.862;2022-08-02T00:37:19;20.80;99.90
12303;DHT22;6214;48.012;7.862;2022-08-02T00:39:46;20.80;99.90
12303;DHT22;6214;48.012;7.862;2022-08-02T00:42:14;20.80;99.90
12303;DHT22;6214;48.012;7.862;2022-08-02T00:44:41;20.70;99.90
12303;DHT22;6214;48.012;7.862;2022-08-02T00:47:09;20.50;99.90
12303;DHT22;6214;48.012;7.862;2022-08-02T00:49:35;20.50;99.90
12303;DHT22;6214;48.012;7.862;2022-08-02T00:52:03;20.40;99.90
12303;DHT22;6214;48.012;7.862;2022-08-02T00:54:30;20.40;99.90
12303;DHT22;6214;48.012;7.862;2022-08-02T00:56:57;20.30;99.90
12303;DHT22;6214;48.012;7.862;2022-08-02T00:59:24;20.40;99.90
12303;DHT22;6214;48.012;7.862;2022-08-02T01:01:51;20.50;99.90
12303;DHT22;6214;48.012;7.862;2022-08-02T01:04:24;20.60;99.90
12303;DHT22;6214;48.012;7.862;2022-08-02T01:07:03;20.40;99.90
12303;DHT22;6214;48.012;7.862;2022-08-02T01:09:43;20.40;99.90
12303;DHT22;6214;48.012;7.862;2022-08-02T01:12:11;20.60;99.90
12303;DHT22;6214;48.012;7.862;2022-08-02T01:14:41;20.70;99.90
12303;DHT22;6214;48.012;7.862;2022-08-02T01:17:15;20.70;99.90
12303;DHT22;6214;48.012;7.862;2022-08-02T01:19:56;20.60;99.90
12303;DHT22;6214;48.012;7.862;2022-08-02T01:22:45;20.50;99.90
12303;DHT22;6214;48.012;7.862;2022-08-02T01:30:47;20.40;99.90
12303;DHT22;6214;48.012;7.862;2022-08-02T01:33:18;20.20;99.90
12303;DHT22;6214;48.012;7.862;2022-08-02T01:35:51;20.10;99.90
12303;DHT22;6214;48.012;7.862;2022-08-02T01:38:25;20.10;99.90
12303;DHT22;6214;48.012;7.862;2022-08-02T01:40:54;20.10;99.90
12303;DHT22;6214;48.012;7.862;2022-08-02T01:43:22;20.00;99.90
12303;DHT22;6214;48.012;7.862;2022-08-02T01:45:52;20.00;99.90
12303;DHT22;6214;48.012;7.862;2022-08-02T01:48:19;20.10;99.90
12303;DHT22;6214;48.012;7.862;2022-08-02T01:50:48;20.20;99.90
12303;DHT22;6214;48.012;7.862;2022-08-02T01:53:18;20.20;99.90
12303;DHT22;6214;48.012;7.862;2022-08-02T01:55:49;20.10;99.90
12303;DHT22;6214;48.012;7.862;2022-08-02T01:58:27;19.90;99.90
12303;DHT22;6214;48.012;7.862;2022-08-02T02:00:57;19.80;99.90
12303;DHT22;6214;48.012;7.862;2022-08-02T02:03:26;19.70;99.90
12303;DHT22;6214;48.012;7.862;2022-08-02T02:05:56;19.70;99.90
12303;DHT22;6214;48.012;7.862;2022-08-02T02:08:30;19.70;99.90
12303;DHT22;6214;48.012;7.862;2022-08-02T02:10:57;19.70;99.90
12303;DHT22;6214;48.012;7.862;2022-08-02T02:13:46;19.60;99.90
12303;DHT22;6214;48.012;7.862;2022-08-02T02:16:14;19.70;99.90
12303;DHT22;6214;48.012;7.862;2022-08-02T02:18:42;19.70;99.90
12303;DHT22;6214;48.012;7.862;2022-08-02T02:21:11;19.60;99.90
12303;DHT22;6214;48.012;7.862;2022-08-02T02:23:38;19.70;99.90
12303;DHT22;6214;48.012;7.862;2022-08-02T02:26:10;19.80;99.90
12303;DHT22;6214;48.012;7.862;2022-08-02T02:28:39;19.70;99.90
12303;DHT22;6214;48.012;7.862;2022-08-02T02:31:09;19.50;99.90
12303;DHT22;6214;48.012;7.862;2022-08-02T02:33:47;19.50;99.90
12303;DHT22;6214;48.012;7.862;2022-08-02T02:36:19;19.70;99.90
12303;DHT22;6214;48.012;7.862;2022-08-02T02:38:49;19.90;99.90
12303;DHT22;6214;48.012;7.862;2022-08-02T02:41:18;19.90;99.90
12303;DHT22;6214;48.012;7.862;2022-08-02T02:43:47;19.80;99.90
12303;DHT22;6214;48.012;7.862;2022-08-02T02:46:17;19.70;99.90
12303;DHT22;6214;48.012;7.862;2022-08-02T02:48:49;19.70;99.90
12303;DHT22;6214;48.012;7.862;2022-08-02T02:51:18;19.70;99.90
12303;DHT22;6214;48.012;7.862;2022-08-02T02:53:48;18.60;99.90
12303;DHT22;6214;48.012;7.862;2022-08-02T02:56:37;19.70;99.90
12303;DHT22;6214;48.012;7.862;2022-08-02T02:59:05;19.70;99.90
12303;DHT22;6214;48.012;7.862;2022-08-02T03:01:33;19.70;99.90
12303;DHT22;6214;48.012;7.862;2022-08-02T03:04:20;19.60;99.90
12303;DHT22;6214;48.012;7.862;2022-08-02T03:06:48;19.50;99.90
12303;DHT22;6214;48.012;7.862;2022-08-02T03:09:15;19.30;99.90
12303;DHT22;6214;48.012;7.862;2022-08-02T03:11:41;19.30;99.90
12303;DHT22;6214;48.012;7.862;2022-08-02T03:14:10;19.30;99.90
12303;DHT22;6214;48.012;7.862;2022-08-02T03:16:42;19.40;99.90
12303;DHT22;6214;48.012;7.862;2022-08-02T03:19:09;19.40;99.90
12303;DHT22;6214;48.012;7.862;2022-08-02T03:21:37;19.50;99.90
12303;DHT22;6214;48.012;7.862;2022-08-02T03:24:04;19.60;99.90
12303;DHT22;6214;48.012;7.862;2022-08-02T03:26:31;19.60;99.90
12303;DHT22;6214;48.012;7.862;2022-08-02T03:28:58;19.60;99.90
12303;DHT22;6214;48.012;7.862;2022-08-02T03:31:27;19.60;99.90
12303;DHT22;6214;48.012;7.862;2022-08-02T03:33:59;19.60;99.90
12303;DHT22;6214;48.012;7.862;2022-08-02T03:36:30;19.50;99.90
12303;DHT22;6214;48.012;7.862;2022-08-02T03:38:59;19.40;99.90
12303;DHT22;6214;48.012;7.862;2022-08-02T03:41:27;19.30;99.90
12303;DHT22;6214;48.012;7.862;2022-08-02T03:43:55;19.30;99.90
12303;DHT22;6214;48.012;7.862;2022-08-02T03:46:23;19.20;99.90
12303;DHT22;6214;48.012;7.862;2022-08-02T03:48:51;19.20;99.90
12303;DHT22;6214;48.012;7.862;2022-08-02T03:51:18;19.20;99.90
12303;DHT22;6214;48.012;7.862;2022-08-02T03:53:47;19.20;99.90
12303;DHT22;6214;48.012;7.862;2022-08-02T03:56:15;19.30;99.90
12303;DHT22;6214;48.012;7.862;2022-08-02T03:58:42;19.50;99.90
12303;DHT22;6214;48.012;7.862;2022-08-02T04:01:15;19.40;99.90
12303;DHT22;6214;48.012;7.862;2022-08-02T04:03:42;19.30;99.90
12303;DHT22;6214;48.012;7.862;2022-08-02T04:06:09;19.30;99.90
12303;DHT22;6214;48.012;7.862;2022-08-02T04:08:36;19.40;99.90
12303;DHT22;6214;48.012;7.862;2022-08-02T04:11:05;19.50;99.90
12303;DHT22;6214;48.012;7.862;2022-08-02T04:13:51;19.40;99.90
12303;DHT22;6214;48.012;7.862;2022-08-02T04:16:33;19.30;99.90
12303;DHT22;6214;48.012;7.862;2022-08-02T04:19:04;19.30;99.90
12303;DHT22;6214;48.012;7.862;2022-08-02T04:21:36;19.30;99.90
12303;DHT22;6214;48.012;7.862;2022-08-02T04:24:22;19.30;99.90
12303;DHT22;6214;48.012;7.862;2022-08-02T04:26:56;19.20;99.90
12303;DHT22;6214;48.012;7.862;2022-08-02T04:29:44;19.20;99.90
12303;DHT22;6214;48.012;7.862;2022-08-02T04:32:13;19.30;99.90
12303;DHT22;6214;48.012;7.862;2022-08-02T04:34:41;19.30;99.90
12303;DHT22;6214;48.012;7.862;2022-08-02T04:37:25;19.40;99.90
12303;DHT22;6214;48.012;7.862;2022-08-02T04:39:52;19.50;99.90
12303;DHT22;6214;48.012;7.862;2022-08-02T04:42:24;19.40;99.90
12303;DHT22;6214;48.012;7.862;2022-08-02T04:44:52;19.40;99.90
12303;DHT22;6214;48.012;7.862;2022-08-02T04:47:19;19.50;99.90
12303;DHT22;6214;48.012;7.862;2022-08-02T04:50:07;19.40;99.90
12303;DHT22;6214;48.012;7.862;2022-08-02T04:52:34;19.50;99.90
12303;DHT22;6214;48.012;7.862;2022-08-02T04:55:01;19.50;99.90
12303;DHT22;6214;48.012;7.862;2022-08-02T04:57:28;19.70;99.90
12303;DHT22;6214;48.012;7.862;2022-08-02T05:00:19;20.00;99.90
12303;DHT22;6214;48.012;7.862;2022-08-02T05:02:46;20.20;99.90
12303;DHT22;6214;48.012;7.862;2022-08-02T05:05:13;20.30;99.90
12303;DHT22;6214;48.012;7.862;2022-08-02T05:07:40;20.30;99.90
12303;DHT22;6214;48.012;7.862;2022-08-02T05:10:07;20.20;99.90
12303;DHT22;6214;48.012;7.862;2022-08-02T05:12:36;20.30;99.90
12303;DHT22;6214;48.012;7.862;2022-08-02T05:15:04;20.30;99.90
12303;DHT22;6214;48.012;7.862;2022-08-02T05:17:31;20.30;99.90
12303;DHT22;6214;48.012;7.862;2022-08-02T05:19:58;20.30;99.90
12303;DHT22;6214;48.012;7.862;2022-08-02T05:22:25;20.30;99.90
12303;DHT22;6214;48.012;7.862;2022-08-02T05:24:51;20.40;99.90
12303;DHT22;6214;48.012;7.862;2022-08-02T05:27:18;20.40;99.90
12303;DHT22;6214;48.012;7.862;2022-08-02T05:29:47;20.50;99.90
12303;DHT22;6214;48.012;7.862;2022-08-02T05:32:22;20.70;99.90
12303;DHT22;6214;48.012;7.862;2022-08-02T05:34:52;20.80;99.90
12303;DHT22;6214;48.012;7.862;2022-08-02T05:37:18;20.80;99.90
12303;DHT22;6214;48.012;7.862;2022-08-02T05:39:45;20.90;99.90
12303;DHT22;6214;48.012;7.862;2022-08-02T05:42:22;21.00;99.90
12303;DHT22;6214;48.012;7.862;2022-08-02T05:44:49;21.10;99.90
12303;DHT22;6214;48.012;7.862;2022-08-02T05:47:16;21.20;99.90
12303;DHT22;6214;48.012;7.862;2022-08-02T05:49:42;21.10;99.90
12303;DHT22;6214;48.012;7.862;2022-08-02T05:52:17;21.10;99.90
12303;DHT22;6214;48.012;7.862;2022-08-02T05:54:56;21.20;99.90
12303;DHT22;6214;48.012;7.862;2022-08-02T06:00:06;21.30;99.90
12303;DHT22;6214;48.012;7.862;2022-08-02T06:05:25;21.40;99.90
12303;DHT22;6214;48.012;7.862;2022-08-02T06:07:54;21.50;99.90
12303;DHT22;6214;48.012;7.862;2022-08-02T06:10:21;21.60;99.90
12303;DHT22;6214;48.012;7.862;2022-08-02T06:13:04;21.90;99.90
12303;DHT22;6214;48.012;7.862;2022-08-02T06:15:33;22.20;99.90
12303;DHT22;6214;48.012;7.862;2022-08-02T06:18:18;22.30;99.90
12303;DHT22;6214;48.012;7.862;2022-08-02T06:21:00;22.30;99.90
12303;DHT22;6214;48.012;7.862;2022-08-02T06:23:47;22.20;99.90
12303;DHT22;6214;48.012;7.862;2022-08-02T06:26:28;22.20;99.90
12303;DHT22;6214;48.012;7.862;2022-08-02T06:28:56;22.20;99.90
12303;DHT22;6214;48.012;7.862;2022-08-02T06:31:23;22.30;99.90
12303;DHT22;6214;48.012;7.862;2022-08-02T06:33:50;22.40;99.90
12303;DHT22;6214;48.012;7.862;2022-08-02T06:36:48;22.50;99.90
12303;DHT22;6214;48.012;7.862;2022-08-02T06:41:57;23.20;99.90
12303;DHT22;6214;48.012;7.862;2022-08-02T06:44:24;23.80;99.90
12303;DHT22;6214;48.012;7.862;2022-08-02T06:47:11;24.20;99.90
12303;DHT22;6214;48.012;7.862;2022-08-02T06:49:40;24.60;99.90
12303;DHT22;6214;48.012;7.862;2022-08-02T06:52:27;25.10;99.90
12303;DHT22;6214;48.012;7.862;2022-08-02T06:55:00;25.60;99.90
12303;DHT22;6214;48.012;7.862;2022-08-02T06:57:28;25.50;99.90
12303;DHT22;6214;48.012;7.862;2022-08-02T06:59:56;25.30;99.90
12303;DHT22;6214;48.012;7.862;2022-08-02T07:02:24;25.50;99.90
12303;DHT22;6214;48.012;7.862;2022-08-02T07:04:51;26.20;99.90
12303;DHT22;6214;48.012;7.862;2022-08-02T07:07:18;26.70;99.90
12303;DHT22;6214;48.012;7.862;2022-08-02T07:09:45;27.70;99.90
12303;DHT22;6214;48.012;7.862;2022-08-02T07:12:26;28.80;99.90
12303;DHT22;6214;48.012;7.862;2022-08-02T07:14:53;29.80;99.90
12303;DHT22;6214;48.012;7.862;2022-08-02T07:17:20;32.60;99.90
12303;DHT22;6214;48.012;7.862;2022-08-02T07:19:47;35.00;99.90
12303;DHT22;6214;48.012;7.862;2022-08-02T07:22:13;36.30;99.90
12303;DHT22;6214;48.012;7.862;2022-08-02T07:24:41;37.40;99.90
12303;DHT22;6214;48.012;7.862;2022-08-02T07:27:08;38.00;99.90
12303;DHT22;6214;48.012;7.862;2022-08-02T07:29:38;38.50;97.50
12303;DHT22;6214;48.012;7.862;2022-08-02T07:32:16;39.10;96.80
12303;DHT22;6214;48.012;7.862;2022-08-02T07:34:44;39.50;93.70
12303;DHT22;6214;48.012;7.862;2022-08-02T07:37:21;39.60;92.50
12303;DHT22;6214;48.012;7.862;2022-08-02T07:40:09;40.60;91.70
12303;DHT22;6214;48.012;7.862;2022-08-02T07:42:45;40.70;87.60
12303;DHT22;6214;48.012;7.862;2022-08-02T07:45:13;41.10;87.00
12303;DHT22;6214;48.012;7.862;2022-08-02T07:47:41;40.70;81.40
12303;DHT22;6214;48.012;7.862;2022-08-02T07:50:10;40.60;81.30
12303;DHT22;6214;48.012;7.862;2022-08-02T07:52:39;40.90;80.10
12303;DHT22;6214;48.012;7.862;2022-08-02T07:55:07;41.10;80.60
12303;DHT22;6214;48.012;7.862;2022-08-02T07:57:35;41.50;81.20
12303;DHT22;6214;48.012;7.862;2022-08-02T08:00:05;41.60;75.50
12303;DHT22;6214;48.012;7.862;2022-08-02T08:02:34;41.50;74.70
12303;DHT22;6214;48.012;7.862;2022-08-02T08:05:00;41.30;75.80
12303;DHT22;6214;48.012;7.862;2022-08-02T08:07:27;41.50;78.40
12303;DHT22;6214;48.012;7.862;2022-08-02T08:09:54;42.30;75.60
12303;DHT22;6214;48.012;7.862;2022-08-02T08:12:22;43.90;70.80
12303;DHT22;6214;48.012;7.862;2022-08-02T08:14:49;43.20;66.80
12303;DHT22;6214;48.012;7.862;2022-08-02T08:17:16;42.90;68.10
12303;DHT22;6214;48.012;7.862;2022-08-02T08:19:43;42.60;65.90
12303;DHT22;6214;48.012;7.862;2022-08-02T08:22:21;42.40;65.80
12303;DHT22;6214;48.012;7.862;2022-08-02T08:24:48;42.50;67.30
12303;DHT22;6214;48.012;7.862;2022-08-02T08:27:16;42.40;68.30
12303;DHT22;6214;48.012;7.862;2022-08-02T08:29:44;42.40;66.90
12303;DHT22;6214;48.012;7.862;2022-08-02T08:32:11;42.40;65.90
12303;DHT22;6214;48.012;7.862;2022-08-02T08:34:47;40.50;70.00
12303;DHT22;6214;48.012;7.862;2022-08-02T08:37:14;39.20;73.80
12303;DHT22;6214;48.012;7.862;2022-08-02T08:39:43;36.80;76.90
12303;DHT22;6214;48.012;7.862;2022-08-02T08:42:28;33.90;86.80
12303;DHT22;6214;48.012;7.862;2022-08-02T08:44:56;32.00;96.00
12303;DHT22;6214;48.012;7.862;2022-08-02T08:47:32;31.10;98.60
12303;DHT22;6214;48.012;7.862;2022-08-02T08:50:08;30.30;99.90
12303;DHT22;6214;48.012;7.862;2022-08-02T08:53:06;33.20;99.90
12303;DHT22;6214;48.012;7.862;2022-08-02T08:55:34;36.80;95.40
12303;DHT22;6214;48.012;7.862;2022-08-02T08:58:03;38.30;91.30
12303;DHT22;6214;48.012;7.862;2022-08-02T09:00:31;39.40;82.00
12303;DHT22;6214;48.012;7.862;2022-08-02T09:03:01;39.80;79.90
12303;DHT22;6214;48.012;7.862;2022-08-02T09:05:28;40.60;75.30
12303;DHT22;6214;48.012;7.862;2022-08-02T09:07:55;40.30;69.00
12303;DHT22;6214;48.012;7.862;2022-08-02T09:10:40;40.10;70.70
12303;DHT22;6214;48.012;7.862;2022-08-02T09:13:17;39.60;69.80
12303;DHT22;6214;48.012;7.862;2022-08-02T09:16:05;38.70;71.20
12303;DHT22;6214;48.012;7.862;2022-08-02T09:18:44;38.10;76.20
12303;DHT22;6214;48.012;7.862;2022-08-02T09:21:14;36.80;73.60
12303;DHT22;6214;48.012;7.862;2022-08-02T09:23:44;35.40;78.70
12303;DHT22;6214;48.012;7.862;2022-08-02T09:28:42;36.00;80.00
12303;DHT22;6214;48.012;7.862;2022-08-02T09:31:16;35.50;81.40
12303;DHT22;6214;48.012;7.862;2022-08-02T09:33:45;36.00;81.70
12303;DHT22;6214;48.012;7.862;2022-08-02T09:36:16;35.60;83.90
12303;DHT22;6214;48.012;7.862;2022-08-02T09:38:59;35.90;84.60
12303;DHT22;6214;48.012;7.862;2022-08-02T09:41:31;37.50;83.30
12303;DHT22;6214;48.012;7.862;2022-08-02T09:43:59;39.10;77.40
12303;DHT22;6214;48.012;7.862;2022-08-02T09:46:37;40.40;73.60
12303;DHT22;6214;48.012;7.862;2022-08-02T09:49:10;40.40;72.00
12303;DHT22;6214;48.012;7.862;2022-08-02T09:51:48;39.30;70.50
12303;DHT22;6214;48.012;7.862;2022-08-02T09:54:18;37.80;74.90
12303;DHT22;6214;48.012;7.862;2022-08-02T09:56:47;37.60;76.80
12303;DHT22;6214;48.012;7.862;2022-08-02T09:59:17;37.60;75.40
12303;DHT22;6214;48.012;7.862;2022-08-02T10:01:45;36.70;76.30
12303;DHT22;6214;48.012;7.862;2022-08-02T10:04:25;37.20;77.90
12303;DHT22;6214;48.012;7.862;2022-08-02T10:06:54;36.50;76.30
12303;DHT22;6214;48.012;7.862;2022-08-02T10:09:21;36.00;80.60
12303;DHT22;6214;48.012;7.862;2022-08-02T10:11:48;35.90;81.50
12303;DHT22;6214;48.012;7.862;2022-08-02T10:14:15;36.10;81.10
12303;DHT22;6214;48.012;7.862;2022-08-02T10:16:44;35.40;81.60
12303;DHT22;6214;48.012;7.862;2022-08-02T10:19:11;34.40;83.10
12303;DHT22;6214;48.012;7.862;2022-08-02T10:21:57;33.20;88.50
12303;DHT22;6214;48.012;7.862;2022-08-02T10:24:30;32.70;91.60
12303;DHT22;6214;48.012;7.862;2022-08-02T10:26:59;32.30;92.90
12303;DHT22;6214;48.012;7.862;2022-08-02T10:29:33;31.90;94.50
12303;DHT22;6214;48.012;7.862;2022-08-02T10:32:30;31.60;94.70
12303;DHT22;6214;48.012;7.862;2022-08-02T10:37:47;31.50;95.70
12303;DHT22;6214;48.012;7.862;2022-08-02T10:40:16;31.50;95.50
12303;DHT22;6214;48.012;7.862;2022-08-02T10:42:54;31.40;96.00
12303;DHT22;6214;48.012;7.862;2022-08-02T10:45:21;31.10;95.50
12303;DHT22;6214;48.012;7.862;2022-08-02T10:55:48;30.70;98.40
12303;DHT22;6214;48.012;7.862;2022-08-02T10:58:16;30.60;98.80
12303;DHT22;6214;48.012;7.862;2022-08-02T11:00:44;30.80;98.10
12303;DHT22;6214;48.012;7.862;2022-08-02T11:03:44;30.70;98.90
12303;DHT22;6214;48.012;7.862;2022-08-02T11:06:13;30.70;99.10
12303;DHT22;6214;48.012;7.862;2022-08-02T11:09:29;30.70;99.90
12303;DHT22;6214;48.012;7.862;2022-08-02T11:14:36;30.70;99.40
12303;DHT22;6214;48.012;7.862;2022-08-02T11:19:31;30.50;99.90
12303;DHT22;6214;48.012;7.862;2022-08-02T11:24:29;30.40;99.90
12303;DHT22;6214;48.012;7.862;2022-08-02T11:26:59;30.30;99.90
12303;DHT22;6214;48.012;7.862;2022-08-02T11:32:05;30.30;99.90
12303;DHT22;6214;48.012;7.862;2022-08-02T11:34:32;30.40;99.90
12303;DHT22;6214;48.012;7.862;2022-08-02T11:37:04;30.10;99.40
12303;DHT22;6214;48.012;7.862;2022-08-02T11:39:31;29.90;99.90
12303;DHT22;6214;48.012;7.862;2022-08-02T11:41:59;29.80;99.90
12303;DHT22;6214;48.012;7.862;2022-08-02T11:44:27;30.00;99.90
12303;DHT22;6214;48.012;7.862;2022-08-02T11:47:01;30.20;99.90
12303;DHT22;6214;48.012;7.862;2022-08-02T11:49:28;30.10;99.90
12303;DHT22;6214;48.012;7.862;2022-08-02T11:52:00;29.80;99.90
12303;DHT22;6214;48.012;7.862;2022-08-02T11:54:37;29.60;99.70
12303;DHT22;6214;48.012;7.862;2022-08-02T11:57:28;29.50;99.90
12303;DHT22;6214;48.012;7.862;2022-08-02T12:00:16;29.60;99.90
12303;DHT22;6214;48.012;7.862;2022-08-02T12:02:47;29.70;99.90
12303;DHT22;6214;48.012;7.862;2022-08-02T12:05:18;29.70;99.90
12303;DHT22;6214;48.012;7.862;2022-08-02T12:07:46;29.70;99.90
12303;DHT22;6214;48.012;7.862;2022-08-02T12:10:22;29.80;99.90
12303;DHT22;6214;48.012;7.862;2022-08-02T12:15:34;29.90;99.90
12303;DHT22;6214;48.012;7.862;2022-08-02T12:18:08;30.00;99.90
12303;DHT22;6214;48.012;7.862;2022-08-02T12:20:54;30.00;99.00
12303;DHT22;6214;48.012;7.862;2022-08-02T12:23:21;30.20;99.40
12303;DHT22;6214;48.012;7.862;2022-08-02T12:26:06;30.40;98.80
12303;DHT22;6214;48.012;7.862;2022-08-02T12:28:41;30.40;98.30
12303;DHT22;6214;48.012;7.862;2022-08-02T12:31:10;30.40;97.30
12303;DHT22;6214;48.012;7.862;2022-08-02T12:33:48;30.40;97.80
12303;DHT22;6214;48.012;7.862;2022-08-02T12:36:20;30.30;98.40
12303;DHT22;6214;48.012;7.862;2022-08-02T12:38:58;30.40;99.40
12303;DHT22;6214;48.012;7.862;2022-08-02T12:41:27;30.40;97.50
12303;DHT22;6214;48.012;7.862;2022-08-02T12:43:58;30.30;97.70
12303;DHT22;6214;48.012;7.862;2022-08-02T12:46:26;30.10;96.20
12303;DHT22;6214;48.012;7.862;2022-08-02T12:48:52;30.10;97.60
12303;DHT22;6214;48.012;7.862;2022-08-02T12:51:40;30.20;97.00
12303;DHT22;6214;48.012;7.862;2022-08-02T12:54:38;30.30;96.10
12303;DHT22;6214;48.012;7.862;2022-08-02T12:57:12;30.40;97.10
12303;DHT22;6214;48.012;7.862;2022-08-02T12:59:41;30.30;97.10
12303;DHT22;6214;48.012;7.862;2022-08-02T13:02:10;30.40;98.30
12303;DHT22;6214;48.012;7.862;2022-08-02T13:04:39;30.40;97.60
12303;DHT22;6214;48.012;7.862;2022-08-02T13:07:07;30.40;97.40
12303;DHT22;6214;48.012;7.862;2022-08-02T13:09:36;30.50;98.10
12303;DHT22;6214;48.012;7.862;2022-08-02T13:12:04;30.50;96.80
12303;DHT22;6214;48.012;7.862;2022-08-02T13:14:31;30.30;97.30
12303;DHT22;6214;48.012;7.862;2022-08-02T13:17:05;30.30;97.70
12303;DHT22;6214;48.012;7.862;2022-08-02T13:19:33;30.40;97.30
12303;DHT22;6214;48.012;7.862;2022-08-02T13:22:00;30.30;97.50
12303;DHT22;6214;48.012;7.862;2022-08-02T13:24:37;30.10;97.20
12303;DHT22;6214;48.012;7.862;2022-08-02T13:27:24;30.10;96.70
12303;DHT22;6214;48.012;7.862;2022-08-02T13:29:52;30.00;97.60
12303;DHT22;6214;48.012;7.862;2022-08-02T13:32:20;30.00;96.90
12303;DHT22;6214;48.012;7.862;2022-08-02T13:34:47;30.00;96.60
12303;DHT22;6214;48.012;7.862;2022-08-02T13:37:14;30.10;96.90
12303;DHT22;6214;48.012;7.862;2022-08-02T13:39:41;30.10;96.30
12303;DHT22;6214;48.012;7.862;2022-08-02T13:42:28;30.10;97.20
12303;DHT22;6214;48.012;7.862;2022-08-02T13:44:55;30.00;95.60
12303;DHT22;6214;48.012;7.862;2022-08-02T13:47:22;30.10;96.10
12303;DHT22;6214;48.012;7.862;2022-08-02T13:50:03;30.00;96.00
12303;DHT22;6214;48.012;7.862;2022-08-02T13:52:32;30.10;95.40
12303;DHT22;6214;48.012;7.862;2022-08-02T13:54:59;30.10;94.10
12303;DHT22;6214;48.012;7.862;2022-08-02T13:57:28;30.20;93.70
12303;DHT22;6214;48.012;7.862;2022-08-02T13:59:55;30.20;93.30
12303;DHT22;6214;48.012;7.862;2022-08-02T14:02:26;30.30;93.20
12303;DHT22;6214;48.012;7.862;2022-08-02T14:04:54;30.30;92.70
12303;DHT22;6214;48.012;7.862;2022-08-02T14:07:21;30.40;92.50
12303;DHT22;6214;48.012;7.862;2022-08-02T14:09:48;30.50;92.10
12303;DHT22;6214;48.012;7.862;2022-08-02T14:12:15;30.60;92.00
12303;DHT22;6214;48.012;7.862;2022-08-02T14:14:42;30.70;90.80
12303;DHT22;6214;48.012;7.862;2022-08-02T14:17:09;30.70;91.90
12303;DHT22;6214;48.012;7.862;2022-08-02T14:19:37;30.60;89.70
12303;DHT22;6214;48.012;7.862;2022-08-02T14:22:05;30.50;88.20
12303;DHT22;6214;48.012;7.862;2022-08-02T14:24:38;30.40;86.70
12303;DHT22;6214;48.012;7.862;2022-08-02T14:27:07;30.30;87.00
12303;DHT22;6214;48.012;7.862;2022-08-02T14:29:34;30.40;86.70
12303;DHT22;6214;48.012;7.862;2022-08-02T14:32:01;30.40;85.20
12303;DHT22;6214;48.012;7.862;2022-08-02T14:34:28;30.40;84.30
12303;DHT22;6214;48.012;7.862;2022-08-02T14:36:55;30.40;84.60
12303;DHT22;6214;48.012;7.862;2022-08-02T14:39:22;30.40;84.00
12303;DHT22;6214;48.012;7.862;2022-08-02T14:41:49;30.50;82.20
12303;DHT22;6214;48.012;7.862;2022-08-02T14:44:27;30.60;83.60
12303;DHT22;6214;48.012;7.862;2022-08-02T14:46:54;30.60;84.60
12303;DHT22;6214;48.012;7.862;2022-08-02T14:49:21;30.50;83.10
12303;DHT22;6214;48.012;7.862;2022-08-02T14:51:55;30.50;80.40
12303;DHT22;6214;48.012;7.862;2022-08-02T14:54:24;30.50;79.70
12303;DHT22;6214;48.012;7.862;2022-08-02T14:56:58;30.50;80.20
12303;DHT22;6214;48.012;7.862;2022-08-02T14:59:25;30.60;80.50
12303;DHT22;6214;48.012;7.862;2022-08-02T15:01:52;30.60;79.10
12303;DHT22;6214;48.012;7.862;2022-08-02T15:04:20;30.60;77.50
12303;DHT22;6214;48.012;7.862;2022-08-02T15:06:47;30.50;78.20
12303;DHT22;6214;48.012;7.862;2022-08-02T15:09:14;30.60;77.50
12303;DHT22;6214;48.012;7.862;2022-08-02T15:11:40;30.70;77.90
12303;DHT22;6214;48.012;7.862;2022-08-02T15:14:17;30.70;76.30
12303;DHT22;6214;48.012;7.862;2022-08-02T15:16:55;30.70;75.90
12303;DHT22;6214;48.012;7.862;2022-08-02T15:19:25;30.70;77.50
12303;DHT22;6214;48.012;7.862;2022-08-02T15:22:13;30.70;75.40
12303;DHT22;6214;48.012;7.862;2022-08-02T15:24:44;30.80;76.10
12303;DHT22;6214;48.012;7.862;2022-08-02T15:27:11;30.80;78.50
12303;DHT22;6214;48.012;7.862;2022-08-02T15:29:42;30.80;76.40
12303;DHT22;6214;48.012;7.862;2022-08-02T15:32:09;30.80;76.30
12303;DHT22;6214;48.012;7.862;2022-08-02T15:34:38;30.90;76.60
12303;DHT22;6214;48.012;7.862;2022-08-02T15:37:05;30.70;74.60
12303;DHT22;6214;48.012;7.862;2022-08-02T15:39:32;30.70;75.00
12303;DHT22;6214;48.012;7.862;2022-08-02T15:41:59;30.70;76.80
12303;DHT22;6214;48.012;7.862;2022-08-02T15:44:26;30.70;76.40
12303;DHT22;6214;48.012;7.862;2022-08-02T15:46:52;30.70;77.40
12303;DHT22;6214;48.012;7.862;2022-08-02T15:49:20;30.80;78.50
12303;DHT22;6214;48.012;7.862;2022-08-02T15:51:50;30.80;77.70
12303;DHT22;6214;48.012;7.862;2022-08-02T15:54:18;30.80;76.70
12303;DHT22;6214;48.012;7.862;2022-08-02T15:56:45;30.80;78.10
12303;DHT22;6214;48.012;7.862;2022-08-02T15:59:12;30.80;79.60
12303;DHT22;6214;48.012;7.862;2022-08-02T16:01:39;30.80;79.10
12303;DHT22;6214;48.012;7.862;2022-08-02T16:04:12;30.70;79.30
12303;DHT22;6214;48.012;7.862;2022-08-02T16:06:39;30.70;79.40
12303;DHT22;6214;48.012;7.862;2022-08-02T16:09:06;30.70;79.80
12303;DHT22;6214;48.012;7.862;2022-08-02T16:11:33;30.60;79.70
12303;DHT22;6214;48.012;7.862;2022-08-02T16:14:00;30.50;80.60
12303;DHT22;6214;48.012;7.862;2022-08-02T16:16:29;30.50;80.00
12303;DHT22;6214;48.012;7.862;2022-08-02T16:18:57;30.50;76.60
12303;DHT22;6214;48.012;7.862;2022-08-02T16:21:24;30.50;77.20
12303;DHT22;6214;48.012;7.862;2022-08-02T16:23:53;30.50;76.10
12303;DHT22;6214;48.012;7.862;2022-08-02T16:26:30;30.60;76.20
12303;DHT22;6214;48.012;7.862;2022-08-02T16:28:58;30.60;76.10
12303;DHT22;6214;48.012;7.862;2022-08-02T16:31:25;30.70;77.80
12303;DHT22;6214;48.012;7.862;2022-08-02T16:33:52;30.80;77.80
12303;DHT22;6214;48.012;7.862;2022-08-02T16:36:23;30.70;75.80
12303;DHT22;6214;48.012;7.862;2022-08-02T16:38:51;30.70;76.50
12303;DHT22;6214;48.012;7.862;2022-08-02T16:41:19;30.70;75.80
12303;DHT22;6214;48.012;7.862;2022-08-02T16:43:46;30.60;74.90
12303;DHT22;6214;48.012;7.862;2022-08-02T16:46:13;30.60;75.80
12303;DHT22;6214;48.012;7.862;2022-08-02T16:48:41;30.60;77.70